createdAt,value
2023-02-17T00:00:15.222Z,12.02
2023-02-17T00:02:41.714Z,10.82
2023-02-17T00:05:08.198Z,11.15
2023-02-17T00:07:34.822Z,11.48
2023-02-17T00:10:01.240Z,11.45
2023-02-17T00:12:27.671Z,11.38
2023-02-17T00:14:54.070Z,11.40
2023-02-17T00:17:20.508Z,10.85
2023-02-17T00:19:46.990Z,10.70
2023-02-17T00:22:13.387Z,10.65
2023-02-17T00:24:40.854Z,10.00
2023-02-17T00:27:07.293Z,10.02
2023-02-17T00:29:34.054Z,9.57
2023-02-17T00:32:00.653Z,9.85
2023-02-17T00:34:28.252Z,9.60
2023-02-17T00:36:54.663Z,9.82
2023-02-17T00:39:21.153Z,10.35
2023-02-17T00:41:47.735Z,10.60
2023-02-17T00:44:19.038Z,9.68
2023-02-17T00:46:46.143Z,9.70
2023-02-17T00:49:15.511Z,10.75
2023-02-17T00:51:41.918Z,9.77
2023-02-17T00:54:08.327Z,9.68
2023-02-17T00:56:34.768Z,10.27
2023-02-17T00:59:01.182Z,10.15
2023-02-17T01:01:27.653Z,10.35
2023-02-17T01:03:54.121Z,9.95
2023-02-17T01:06:24.931Z,10.35
2023-02-17T01:08:51.705Z,10.13
2023-02-17T01:11:22.901Z,9.73
2023-02-17T01:13:49.438Z,9.20
2023-02-17T01:16:23.279Z,10.13
2023-02-17T01:18:49.773Z,9.55
2023-02-17T01:21:20.558Z,10.35
2023-02-17T01:23:50.816Z,9.18
2023-02-17T01:26:18.989Z,8.95
2023-02-17T01:28:45.771Z,9.93
2023-02-17T01:31:12.814Z,9.25
2023-02-17T01:33:40.163Z,8.73
2023-02-17T01:36:07.583Z,8.48
2023-02-17T01:38:34.474Z,8.98
2023-02-17T01:41:00.869Z,9.25
2023-02-17T01:43:27.307Z,9.45
2023-02-17T01:45:57.878Z,8.30
2023-02-17T01:48:38.669Z,8.40
2023-02-17T01:51:05.132Z,8.52
2023-02-17T01:53:41.688Z,9.15
2023-02-17T01:56:08.421Z,9.32
2023-02-17T01:58:34.944Z,8.52
2023-02-17T02:01:03.534Z,8.75
2023-02-17T02:03:32.565Z,8.02
2023-02-17T02:06:00.258Z,8.02
2023-02-17T02:08:29.702Z,8.55
2023-02-17T02:10:56.182Z,8.13
2023-02-17T02:13:22.615Z,7.65
2023-02-17T02:16:01.233Z,8.25
2023-02-17T02:18:27.626Z,7.35
2023-02-17T02:21:21.412Z,6.70
2023-02-17T02:24:02.450Z,7.10
2023-02-17T02:26:47.750Z,7.32
2023-02-17T02:29:24.897Z,7.55
2023-02-17T02:32:10.139Z,7.40
2023-02-17T02:34:54.922Z,7.10
2023-02-17T02:37:25.277Z,6.82
2023-02-17T02:39:52.868Z,7.20
2023-02-17T02:42:21.662Z,7.70
2023-02-17T02:44:48.308Z,7.50
2023-02-17T02:47:33.400Z,7.07
2023-02-17T02:49:59.865Z,7.30
2023-02-17T02:52:37.035Z,6.28
2023-02-17T02:55:05.142Z,6.97
2023-02-17T02:57:47.784Z,5.65
2023-02-17T03:00:17.232Z,6.22
2023-02-17T03:02:52.572Z,6.25
2023-02-17T03:05:23.193Z,6.20
2023-02-17T03:08:02.153Z,6.05
2023-02-17T03:10:28.759Z,5.97
2023-02-17T03:12:55.658Z,6.28
2023-02-17T03:15:26.190Z,5.75
2023-02-17T03:17:52.575Z,5.57
2023-02-17T03:20:19.097Z,5.45
2023-02-17T03:22:47.339Z,6.03
2023-02-17T03:25:13.848Z,6.07
2023-02-17T03:27:40.312Z,5.95
2023-02-17T03:30:07.185Z,5.50
2023-02-17T03:32:33.668Z,5.78
2023-02-17T03:35:00.055Z,6.43
2023-02-17T03:37:26.498Z,5.78
2023-02-17T03:39:52.893Z,5.63
2023-02-17T03:42:20.497Z,5.45
2023-02-17T03:44:46.882Z,5.22
2023-02-17T03:47:13.304Z,5.43
2023-02-17T03:49:39.718Z,5.22
2023-02-17T03:52:06.158Z,5.13
2023-02-17T03:54:32.747Z,5.50
2023-02-17T03:57:01.138Z,5.70
2023-02-17T03:59:27.864Z,4.57
2023-02-17T04:01:54.378Z,5.35
2023-02-17T04:04:20.856Z,5.18
2023-02-17T04:06:47.341Z,5.13
2023-02-17T04:09:13.831Z,5.38
2023-02-17T04:11:44.442Z,5.47
2023-02-17T04:14:11.022Z,5.45
2023-02-17T04:16:39.282Z,5.05
2023-02-17T04:19:06.678Z,5.05
2023-02-17T04:21:33.190Z,5.53
2023-02-17T04:24:03.196Z,5.10
2023-02-17T04:26:29.762Z,5.38
2023-02-17T04:28:56.537Z,5.47
2023-02-17T04:31:23.161Z,5.40
2023-02-17T04:33:49.658Z,5.10
2023-02-17T04:36:16.182Z,4.43
2023-02-17T04:38:42.615Z,4.95
2023-02-17T04:41:10.113Z,5.43
2023-02-17T04:43:36.493Z,5.03
2023-02-17T04:46:03.115Z,4.82
2023-02-17T04:48:29.607Z,4.60
2023-02-17T04:50:55.996Z,5.15
2023-02-17T04:53:22.513Z,4.90
2023-02-17T04:55:50.708Z,5.55
2023-02-17T04:58:17.678Z,5.00
2023-02-17T05:00:44.219Z,5.05
2023-02-17T05:03:10.626Z,4.78
2023-02-17T05:05:37.120Z,4.97
2023-02-17T05:08:03.870Z,5.28
2023-02-17T05:10:30.286Z,5.07
2023-02-17T05:12:56.705Z,5.00
2023-02-17T05:15:23.136Z,5.28
2023-02-17T05:17:49.659Z,4.90
2023-02-17T05:20:16.074Z,4.75
2023-02-17T05:22:42.501Z,5.30
2023-02-17T05:25:08.903Z,5.03
2023-02-17T05:27:35.609Z,4.95
2023-02-17T05:30:02.508Z,5.13
2023-02-17T05:32:29.003Z,4.32
2023-02-17T05:34:55.445Z,5.20
2023-02-17T05:37:21.919Z,5.53
2023-02-17T05:39:48.320Z,5.05
2023-02-17T05:42:14.752Z,5.00
2023-02-17T05:44:41.203Z,5.07
2023-02-17T05:47:07.664Z,5.35
2023-02-17T05:49:34.120Z,4.60
2023-02-17T05:52:00.591Z,4.88
2023-02-17T05:54:27.008Z,4.75
2023-02-17T05:56:53.417Z,4.45
2023-02-17T05:59:19.915Z,4.63
2023-02-17T06:01:46.356Z,4.35
2023-02-17T06:04:12.780Z,4.30
2023-02-17T06:06:39.248Z,4.18
2023-02-17T06:09:05.668Z,4.32
2023-02-17T06:11:32.553Z,4.20
2023-02-17T06:13:59.001Z,4.13
2023-02-17T06:16:25.481Z,3.85
2023-02-17T06:18:51.951Z,3.80
2023-02-17T06:21:18.412Z,4.00
2023-02-17T06:23:44.879Z,3.85
2023-02-17T06:26:11.570Z,3.80
2023-02-17T06:28:37.999Z,3.60
2023-02-17T06:31:04.563Z,4.03
2023-02-17T06:33:31.102Z,3.58
2023-02-17T06:35:57.663Z,3.65
2023-02-17T06:38:24.096Z,4.10
2023-02-17T06:40:50.563Z,3.90
2023-02-17T06:43:17.025Z,3.50
2023-02-17T06:45:43.542Z,3.53
2023-02-17T06:48:10.536Z,3.35
2023-02-17T06:50:37.106Z,3.35
2023-02-17T06:53:03.760Z,4.00
2023-02-17T06:55:30.442Z,3.60
2023-02-17T06:57:57.008Z,3.30
2023-02-17T07:00:23.549Z,3.40
2023-02-17T07:02:50.075Z,3.28
2023-02-17T07:05:16.596Z,3.60
2023-02-17T07:07:43.058Z,3.60
2023-02-17T07:10:09.645Z,3.58
2023-02-17T07:12:36.073Z,3.70
2023-02-17T07:15:02.532Z,3.70
2023-02-17T07:17:28.983Z,3.80
2023-02-17T07:19:55.470Z,3.92
2023-02-17T07:22:21.901Z,4.25
2023-02-17T07:24:48.335Z,4.03
2023-02-17T07:27:14.943Z,5.03
2023-02-17T07:29:41.376Z,4.60
2023-02-17T07:32:07.862Z,4.80
2023-02-17T07:34:34.353Z,4.60
2023-02-17T07:37:00.767Z,4.57
2023-02-17T07:39:27.246Z,5.63
2023-02-17T07:41:53.685Z,4.78
2023-02-17T07:44:20.146Z,5.45
2023-02-17T07:46:46.644Z,4.88
2023-02-17T07:49:14.785Z,5.10
2023-02-17T07:51:41.275Z,4.60
2023-02-17T07:54:07.718Z,5.25
2023-02-17T07:56:34.177Z,4.47
2023-02-17T07:59:00.624Z,4.45
2023-02-17T08:01:27.144Z,5.05
2023-02-17T08:03:53.958Z,3.95
2023-02-17T08:06:21.593Z,4.40
2023-02-17T08:09:07.114Z,5.20
2023-02-17T08:11:52.431Z,4.85
2023-02-17T08:14:20.518Z,4.47
2023-02-17T08:16:47.015Z,5.20
2023-02-17T08:19:13.521Z,4.80
2023-02-17T08:21:40.069Z,4.50
2023-02-17T08:24:06.700Z,4.28
2023-02-17T08:26:33.248Z,5.00
2023-02-17T08:28:59.686Z,4.75
2023-02-17T08:31:30.546Z,4.30
2023-02-17T08:33:57.090Z,5.50
2023-02-17T08:36:24.743Z,4.97
2023-02-17T08:38:54.622Z,4.15
2023-02-17T08:41:22.667Z,4.60
2023-02-17T08:43:51.958Z,4.55
2023-02-17T08:46:19.110Z,5.18
2023-02-17T08:48:45.599Z,5.15
2023-02-17T08:51:13.284Z,4.40
2023-02-17T08:53:39.911Z,4.43
2023-02-17T08:56:07.568Z,4.18
2023-02-17T08:58:34.668Z,3.80
2023-02-17T09:01:01.225Z,4.90
2023-02-17T09:03:27.800Z,4.97
2023-02-17T09:05:57.778Z,5.00
2023-02-17T09:08:24.505Z,4.35
2023-02-17T09:10:51.347Z,4.00
2023-02-17T09:13:17.973Z,4.55
2023-02-17T09:15:44.847Z,4.60
2023-02-17T09:18:11.383Z,4.25
2023-02-17T09:20:39.617Z,4.25
2023-02-17T09:23:06.425Z,4.65
2023-02-17T09:25:33.650Z,4.93
2023-02-17T09:28:00.217Z,4.85
2023-02-17T09:30:27.032Z,4.03
2023-02-17T09:32:53.571Z,3.90
2023-02-17T09:35:20.054Z,4.22
2023-02-17T09:37:46.445Z,5.75
2023-02-17T09:40:19.099Z,4.63
2023-02-17T09:42:45.846Z,4.43
2023-02-17T09:45:16.614Z,4.53
2023-02-17T09:47:54.851Z,4.20
2023-02-17T09:50:57.023Z,4.28
2023-02-17T09:53:29.673Z,4.55
2023-02-17T09:55:57.675Z,4.60
2023-02-17T09:58:27.110Z,4.43
2023-02-17T10:00:56.081Z,4.00
2023-02-17T10:03:31.080Z,4.53
2023-02-17T10:06:18.644Z,4.10
2023-02-17T10:08:50.311Z,4.07
2023-02-17T10:11:33.776Z,4.70
2023-02-17T10:14:05.416Z,3.72
2023-02-17T10:16:35.888Z,4.22
2023-02-17T10:19:12.856Z,4.07
2023-02-17T10:21:42.453Z,4.45
2023-02-17T10:24:09.655Z,3.78
2023-02-17T10:27:05.520Z,3.90
2023-02-17T10:29:37.154Z,3.97
2023-02-17T10:32:03.724Z,4.32
2023-02-17T10:34:37.521Z,3.88
2023-02-17T10:37:05.274Z,3.95
2023-02-17T10:39:31.668Z,3.90
2023-02-17T10:41:58.158Z,4.10
2023-02-17T10:44:25.074Z,4.07
2023-02-17T10:46:53.313Z,3.70
2023-02-17T10:49:26.843Z,4.13
2023-02-17T10:51:53.319Z,4.10
2023-02-17T10:54:26.889Z,5.10
2023-02-17T10:56:54.960Z,4.28
2023-02-17T10:59:23.912Z,3.85
2023-02-17T11:01:50.951Z,4.13
2023-02-17T11:04:17.413Z,4.28
2023-02-17T11:06:44.977Z,4.15
2023-02-17T11:09:23.472Z,3.78
2023-02-17T11:12:10.194Z,4.40
2023-02-17T11:14:37.239Z,3.90
2023-02-17T11:17:22.966Z,3.70
2023-02-17T11:20:15.925Z,3.53
2023-02-17T11:22:45.842Z,4.00
2023-02-17T11:25:23.606Z,3.88
2023-02-17T11:27:54.356Z,3.80
2023-02-17T11:30:21.211Z,3.85
2023-02-17T11:32:48.442Z,3.90
2023-02-17T11:35:23.583Z,3.60
2023-02-17T11:37:50.102Z,3.67
2023-02-17T11:40:30.285Z,3.83
2023-02-17T11:42:58.012Z,3.78
2023-02-17T11:45:25.759Z,4.32
2023-02-17T11:47:58.087Z,3.58
2023-02-17T11:53:19.990Z,4.35
2023-02-17T11:56:16.155Z,3.85
2023-02-17T11:59:01.538Z,4.05
2023-02-17T12:01:46.409Z,4.00
2023-02-17T12:04:48.498Z,4.55
2023-02-17T12:07:15.297Z,4.30
2023-02-17T12:09:41.690Z,3.97
2023-02-17T12:12:20.182Z,4.10
2023-02-17T12:14:49.932Z,4.07
2023-02-17T12:17:19.130Z,4.45
2023-02-17T12:20:02.010Z,4.13
2023-02-17T12:22:51.438Z,4.07
2023-02-17T12:25:20.806Z,4.45
2023-02-17T12:27:53.384Z,4.32
2023-02-17T12:30:38.688Z,3.95
2023-02-17T12:33:07.969Z,4.35
2023-02-17T12:35:40.571Z,3.88
2023-02-17T12:38:15.623Z,4.03
2023-02-17T12:40:47.292Z,3.70
2023-02-17T12:43:13.622Z,4.25
2023-02-17T12:45:42.636Z,3.63
2023-02-17T12:48:24.319Z,3.95
2023-02-17T12:50:53.787Z,3.60
2023-02-17T12:53:43.618Z,3.75
2023-02-17T12:56:28.351Z,3.63
2023-02-17T12:58:56.519Z,3.60
2023-02-17T13:01:24.807Z,3.72
2023-02-17T13:03:51.305Z,3.83
2023-02-17T13:06:17.709Z,3.22
2023-02-17T13:08:44.076Z,3.35
2023-02-17T13:11:25.189Z,3.50
2023-02-17T13:13:51.603Z,3.17
2023-02-17T13:16:18.224Z,3.25
2023-02-17T13:18:46.062Z,3.80
2023-02-17T13:21:28.711Z,3.53
2023-02-17T13:24:02.384Z,3.20
2023-02-17T13:26:30.471Z,3.35
2023-02-17T13:29:12.502Z,3.10
2023-02-17T13:31:50.435Z,3.17
2023-02-17T13:34:37.258Z,3.42
2023-02-17T13:37:23.907Z,3.03
2023-02-17T13:39:50.687Z,3.10
2023-02-17T13:42:37.600Z,3.17
2023-02-17T13:45:14.598Z,3.53
2023-02-17T13:47:42.073Z,3.15
2023-02-17T13:50:28.052Z,3.30
2023-02-17T13:52:55.368Z,3.25
2023-02-17T13:55:23.904Z,3.10
2023-02-17T13:57:57.794Z,3.28
2023-02-17T14:00:24.583Z,2.80
2023-02-17T14:02:53.098Z,3.70
2023-02-17T14:05:21.226Z,3.28
2023-02-17T14:07:48.581Z,3.45
2023-02-17T14:10:22.979Z,3.40
2023-02-17T14:12:49.786Z,3.83
2023-02-17T14:15:17.214Z,3.55
2023-02-17T14:17:43.704Z,3.67
2023-02-17T14:20:24.651Z,3.80
2023-02-17T14:23:03.964Z,3.90
2023-02-17T14:25:31.920Z,3.30
2023-02-17T14:27:58.610Z,3.53
2023-02-17T14:30:32.686Z,3.47
2023-02-17T14:33:02.261Z,3.60
2023-02-17T14:35:28.726Z,3.85
2023-02-17T14:37:55.162Z,3.08
2023-02-17T14:40:23.433Z,3.33
2023-02-17T14:42:50.485Z,3.58
2023-02-17T14:45:19.098Z,3.45
2023-02-17T14:47:46.108Z,3.60
2023-02-17T14:50:13.001Z,3.75
2023-02-17T14:52:42.346Z,3.58
2023-02-17T14:55:35.280Z,3.33
2023-02-17T14:58:01.970Z,3.88
2023-02-17T15:00:28.727Z,4.03
2023-02-17T15:02:55.226Z,3.55
2023-02-17T15:05:21.666Z,3.60
2023-02-17T15:07:48.407Z,3.50
2023-02-17T15:10:23.746Z,3.95
2023-02-17T15:12:50.299Z,3.97
2023-02-17T15:15:17.256Z,4.35
2023-02-17T15:17:44.085Z,4.43
2023-02-17T15:20:11.061Z,4.13
2023-02-17T15:22:41.619Z,4.55
2023-02-17T15:25:16.173Z,4.18
2023-02-17T15:27:42.680Z,4.32
2023-02-17T15:30:16.682Z,4.57
2023-02-17T15:32:43.761Z,4.05
2023-02-17T15:35:15.753Z,4.22
2023-02-17T15:37:42.162Z,4.28
2023-02-17T15:40:13.139Z,4.57
2023-02-17T15:42:39.616Z,4.60
2023-02-17T15:45:06.242Z,4.10
2023-02-17T15:47:32.618Z,4.30
2023-02-17T15:49:59.279Z,3.70
2023-02-17T15:52:25.720Z,4.47
2023-02-17T15:54:53.852Z,4.30
2023-02-17T15:57:22.275Z,4.45
2023-02-17T15:59:49.107Z,4.18
2023-02-17T16:02:21.124Z,4.38
2023-02-17T16:04:48.450Z,3.88
2023-02-17T16:07:15.000Z,3.40
2023-02-17T16:09:41.491Z,4.05
2023-02-17T16:12:15.017Z,4.30
2023-02-17T16:14:41.411Z,4.07
2023-02-17T16:17:12.979Z,4.20
2023-02-17T16:19:39.405Z,3.88
2023-02-17T16:22:05.860Z,3.60
2023-02-17T16:24:32.209Z,3.13
2023-02-17T16:26:58.630Z,3.03
2023-02-17T16:29:25.283Z,3.88
2023-02-17T16:31:52.554Z,3.60
2023-02-17T16:34:23.271Z,3.35
2023-02-17T16:36:50.772Z,3.65
2023-02-17T16:39:18.147Z,3.03
2023-02-17T16:41:44.631Z,3.10
2023-02-17T16:44:14.770Z,3.10
2023-02-17T16:46:45.750Z,3.00
2023-02-17T16:49:16.952Z,3.10
2023-02-17T16:51:43.340Z,3.30
2023-02-17T16:54:10.589Z,2.97
2023-02-17T16:56:39.652Z,2.92
2023-02-17T16:59:06.029Z,3.00
2023-02-17T17:01:32.520Z,2.85
2023-02-17T17:03:58.939Z,2.72
2023-02-17T17:06:26.224Z,2.78
2023-02-17T17:08:52.710Z,2.88
2023-02-17T17:11:21.563Z,2.53
2023-02-17T17:13:48.478Z,2.90
2023-02-17T17:16:31.039Z,2.92
2023-02-17T17:21:24.516Z,2.55
2023-02-17T17:23:50.956Z,2.53
2023-02-17T17:26:36.662Z,2.55
2023-02-17T17:29:03.633Z,2.40
2023-02-17T17:31:30.196Z,2.50
2023-02-17T17:33:56.673Z,2.42
2023-02-17T17:36:23.328Z,2.60
2023-02-17T17:38:50.727Z,2.13
2023-02-17T17:41:17.368Z,2.45
2023-02-17T17:43:46.713Z,2.70
2023-02-17T17:46:18.251Z,2.58
2023-02-17T17:48:44.820Z,2.75
2023-02-17T17:51:13.280Z,2.45
2023-02-17T17:53:39.816Z,2.63
2023-02-17T17:56:07.094Z,2.78
2023-02-17T17:58:37.547Z,2.92
2023-02-17T18:01:04.048Z,2.80
2023-02-17T18:03:30.578Z,2.90
2023-02-17T18:05:57.585Z,2.60
2023-02-17T18:08:24.023Z,2.42
2023-02-17T18:10:50.628Z,2.80
2023-02-17T18:13:17.365Z,2.90
2023-02-17T18:15:43.845Z,2.95
2023-02-17T18:18:11.225Z,2.72
2023-02-17T18:20:37.681Z,3.22
2023-02-17T18:23:04.169Z,3.00
2023-02-17T18:25:30.902Z,2.72
2023-02-17T18:27:57.321Z,3.17
2023-02-17T18:30:23.994Z,3.13
2023-02-17T18:32:51.478Z,3.22
2023-02-17T18:35:18.639Z,3.08
2023-02-17T18:37:45.390Z,3.30
2023-02-17T18:40:12.956Z,3.47
2023-02-17T18:42:40.647Z,3.17
2023-02-17T18:45:07.450Z,3.47
2023-02-17T18:47:33.887Z,3.58
2023-02-17T18:50:00.332Z,3.47
2023-02-17T18:52:26.900Z,3.15
2023-02-17T18:54:53.302Z,3.60
2023-02-17T18:57:19.754Z,3.15
2023-02-17T18:59:46.195Z,3.40
2023-02-17T19:02:12.676Z,3.08
2023-02-17T19:04:39.203Z,2.85
2023-02-17T19:07:07.084Z,3.00
2023-02-17T19:09:34.136Z,2.80
2023-02-17T19:12:00.543Z,2.35
2023-02-17T19:14:27.416Z,2.72
2023-02-17T19:16:53.919Z,2.45
2023-02-17T19:19:20.687Z,2.50
2023-02-17T19:21:47.206Z,2.42
2023-02-17T19:24:16.309Z,2.53
2023-02-17T19:26:43.257Z,2.35
2023-02-17T19:29:09.665Z,1.83
2023-02-17T19:31:36.193Z,2.25
2023-02-17T19:34:02.754Z,2.10
2023-02-17T19:36:29.169Z,1.80
2023-02-17T19:38:56.526Z,1.90
2023-02-17T19:41:23.279Z,2.17
2023-02-17T19:43:51.143Z,2.03
2023-02-17T19:46:20.013Z,1.70
2023-02-17T19:48:46.749Z,1.98
2023-02-17T19:51:14.216Z,1.70
2023-02-17T19:53:42.961Z,1.80
2023-02-17T19:56:12.202Z,1.42
2023-02-17T19:58:39.439Z,1.50
2023-02-17T20:01:06.920Z,1.42
2023-02-17T20:03:33.370Z,1.50
2023-02-17T20:06:03.441Z,1.38
2023-02-17T20:08:29.904Z,1.30
2023-02-17T20:10:56.305Z,1.23
2023-02-17T20:13:22.712Z,1.30
2023-02-17T20:15:57.022Z,1.20
2023-02-17T20:18:23.402Z,1.20
2023-02-17T20:20:55.706Z,1.20
2023-02-17T20:25:48.827Z,1.13
2023-02-17T20:28:15.274Z,1.20
2023-02-17T20:30:42.622Z,1.25
2023-02-17T20:33:09.976Z,1.17
2023-02-17T20:35:36.894Z,1.20
2023-02-17T20:38:04.109Z,0.90
2023-02-17T20:40:30.521Z,1.05
2023-02-17T20:42:57.359Z,0.90
2023-02-17T20:45:24.114Z,1.20
2023-02-17T20:47:50.511Z,1.05
2023-02-17T20:50:18.410Z,1.20
2023-02-17T20:52:45.423Z,1.20
2023-02-17T20:55:13.539Z,1.10
2023-02-17T20:57:40.633Z,0.75
2023-02-17T21:00:09.646Z,1.40
2023-02-17T21:02:36.033Z,1.42
2023-02-17T21:05:02.484Z,1.17
2023-02-17T21:07:28.911Z,1.00
2023-02-17T21:09:55.329Z,1.20
2023-02-17T21:12:21.767Z,1.20
2023-02-17T21:14:48.638Z,1.15
2023-02-17T21:17:15.128Z,1.20
2023-02-17T21:19:41.617Z,1.13
2023-02-17T21:22:08.131Z,1.45
2023-02-17T21:24:34.686Z,1.35
2023-02-17T21:27:01.171Z,1.25
2023-02-17T21:29:27.604Z,1.20
2023-02-17T21:31:55.431Z,1.27
2023-02-17T21:34:21.920Z,1.08
2023-02-17T21:36:48.348Z,1.02
2023-02-17T21:39:14.757Z,1.00
2023-02-17T21:41:41.618Z,1.17
2023-02-17T21:44:28.352Z,1.15
2023-02-17T21:46:54.763Z,1.00
2023-02-17T21:49:21.202Z,0.98
2023-02-17T21:51:48.544Z,0.95
2023-02-17T21:54:15.188Z,1.00
2023-02-17T21:56:41.609Z,0.90
2023-02-17T21:59:08.090Z,1.13
2023-02-17T22:01:34.733Z,1.27
2023-02-17T22:04:01.253Z,1.23
2023-02-17T22:06:29.849Z,1.00
2023-02-17T22:08:57.079Z,1.02
2023-02-17T22:11:25.235Z,1.08
2023-02-17T22:13:55.702Z,0.80
2023-02-17T22:16:22.576Z,1.00
2023-02-17T22:18:49.132Z,0.90
2023-02-17T22:21:15.756Z,0.90
2023-02-17T22:23:42.577Z,0.90
2023-02-17T22:26:13.252Z,1.02
2023-02-17T22:28:39.684Z,0.80
2023-02-17T22:31:06.377Z,1.00
2023-02-17T22:33:33.452Z,0.90
2023-02-17T22:36:05.608Z,0.70
2023-02-17T22:40:58.777Z,0.80
2023-02-17T22:43:25.312Z,0.80
2023-02-17T22:46:00.984Z,0.65
2023-02-17T22:48:28.262Z,0.90
2023-02-17T22:50:54.728Z,0.75
2023-02-17T22:53:21.206Z,0.60
2023-02-17T22:55:54.512Z,0.65
2023-02-17T22:58:21.952Z,0.57
2023-02-17T23:00:48.668Z,0.60
2023-02-17T23:03:15.854Z,0.60
2023-02-17T23:05:43.708Z,0.50
2023-02-17T23:08:10.433Z,0.60
2023-02-17T23:10:40.440Z,0.70
2023-02-17T23:13:07.078Z,0.50
2023-02-17T23:15:39.365Z,0.52
2023-02-17T23:18:10.095Z,0.40
2023-02-17T23:20:38.268Z,0.60
2023-02-17T23:23:04.751Z,0.60
2023-02-17T23:25:31.146Z,0.40
2023-02-17T23:27:57.549Z,0.45
2023-02-17T23:30:24.185Z,0.50
2023-02-17T23:32:50.679Z,0.57
2023-02-17T23:35:17.127Z,0.50
2023-02-17T23:37:43.603Z,0.40
2023-02-17T23:40:10.674Z,0.47
2023-02-17T23:42:37.548Z,0.45
2023-02-17T23:45:04.282Z,0.40
2023-02-17T23:47:31.076Z,0.43
2023-02-17T23:49:57.560Z,0.40
2023-02-17T23:52:23.985Z,0.50
2023-02-17T23:54:50.771Z,0.38
2023-02-17T23:57:17.217Z,0.38
2023-02-17T23:59:43.643Z,0.55
